createdAt,value
2022-09-26T00:02:04.000Z,93
2022-09-26T00:03:31.000Z,93
2022-09-26T00:05:37.000Z,93
2022-09-26T00:07:04.000Z,93
2022-09-26T00:09:10.000Z,93
2022-09-26T00:10:36.000Z,93
2022-09-26T00:12:43.000Z,93
2022-09-26T00:15:34.000Z,93
2022-09-26T00:17:00.000Z,93
2022-09-26T00:19:06.000Z,92
2022-09-26T00:20:33.000Z,92
2022-09-26T00:22:39.000Z,92
2022-09-26T00:24:06.000Z,92
2022-09-26T00:26:12.000Z,92
2022-09-26T00:27:38.000Z,92
2022-09-26T00:29:44.000Z,92
2022-09-26T00:31:11.000Z,92
2022-09-26T00:33:17.000Z,92
2022-09-26T00:34:44.000Z,92
2022-09-26T00:36:50.000Z,92
2022-09-26T00:38:16.000Z,92
2022-09-26T00:40:22.000Z,92
2022-09-26T00:41:49.000Z,92
2022-09-26T00:43:55.000Z,93
2022-09-26T00:45:21.000Z,93
2022-09-26T00:47:27.000Z,93
2022-09-26T00:48:54.000Z,93
2022-09-26T00:51:00.000Z,92
2022-09-26T00:53:51.000Z,92
2022-09-26T00:55:17.000Z,93
2022-09-26T00:57:23.000Z,93
2022-09-26T00:58:50.000Z,92
2022-09-26T01:00:56.000Z,92
2022-09-26T01:02:23.000Z,92
2022-09-26T01:04:29.000Z,93
2022-09-26T01:05:56.000Z,93
2022-09-26T01:08:02.000Z,93
2022-09-26T01:09:28.000Z,92
2022-09-26T01:11:34.000Z,93
2022-09-26T01:13:01.000Z,92
2022-09-26T01:15:07.000Z,92
2022-09-26T01:16:34.000Z,92
2022-09-26T01:18:40.000Z,93
2022-09-26T01:20:06.000Z,93
2022-09-26T01:22:12.000Z,94
2022-09-26T01:23:39.000Z,93
2022-09-26T01:25:45.000Z,93
2022-09-26T01:27:12.000Z,93
2022-09-26T01:29:18.000Z,93
2022-09-26T01:32:09.000Z,92
2022-09-26T01:33:36.000Z,92
2022-09-26T01:35:42.000Z,92
2022-09-26T01:37:08.000Z,92
2022-09-26T01:39:14.000Z,92
2022-09-26T01:40:41.000Z,92
2022-09-26T01:42:47.000Z,92
2022-09-26T01:44:14.000Z,92
2022-09-26T01:46:20.000Z,92
2022-09-26T01:47:47.000Z,91
2022-09-26T01:49:53.000Z,92
2022-09-26T01:51:19.000Z,93
2022-09-26T01:53:25.000Z,92
2022-09-26T01:54:52.000Z,92
2022-09-26T01:56:58.000Z,93
2022-09-26T01:58:24.000Z,93
2022-09-26T02:00:30.000Z,93
2022-09-26T02:01:57.000Z,93
2022-09-26T02:04:03.000Z,93
2022-09-26T02:05:30.000Z,93
2022-09-26T02:07:36.000Z,93
2022-09-26T02:10:27.000Z,93
2022-09-26T02:11:54.000Z,93
2022-09-26T02:14:00.000Z,92
2022-09-26T02:15:26.000Z,93
2022-09-26T02:17:32.000Z,93
2022-09-26T02:18:59.000Z,92
2022-09-26T02:21:05.000Z,92
2022-09-26T02:22:31.000Z,93
2022-09-26T02:24:38.000Z,93
2022-09-26T02:26:04.000Z,93
2022-09-26T02:28:10.000Z,93
2022-09-26T02:29:37.000Z,93
2022-09-26T02:31:43.000Z,92
2022-09-26T02:33:09.000Z,93
2022-09-26T02:35:16.000Z,93
2022-09-26T02:36:42.000Z,93
2022-09-26T02:38:48.000Z,93
2022-09-26T02:40:15.000Z,93
2022-09-26T02:42:21.000Z,93
2022-09-26T02:43:48.000Z,93
2022-09-26T02:45:54.000Z,93
2022-09-26T02:48:45.000Z,93
2022-09-26T02:50:11.000Z,93
2022-09-26T02:52:18.000Z,93
2022-09-26T02:53:44.000Z,93
2022-09-26T02:55:50.000Z,92
2022-09-26T02:57:17.000Z,93
2022-09-26T02:59:23.000Z,92
2022-09-26T03:00:49.000Z,92
2022-09-26T03:02:56.000Z,92
2022-09-26T03:04:22.000Z,92
2022-09-26T03:06:28.000Z,92
2022-09-26T03:07:55.000Z,92
2022-09-26T03:10:01.000Z,92
2022-09-26T03:11:27.000Z,92
2022-09-26T03:13:33.000Z,93
2022-09-26T03:15:00.000Z,93
2022-09-26T03:17:06.000Z,93
2022-09-26T03:18:33.000Z,93
2022-09-26T03:20:39.000Z,93
2022-09-26T03:22:05.000Z,93
2022-09-26T03:24:12.000Z,93
2022-09-26T03:27:03.000Z,93
2022-09-26T03:28:29.000Z,93
2022-09-26T03:30:42.000Z,93
2022-09-26T03:32:09.000Z,93
2022-09-26T03:34:15.000Z,93
2022-09-26T03:35:42.000Z,93
2022-09-26T03:37:48.000Z,94
2022-09-26T03:39:14.000Z,94
2022-09-26T03:41:21.000Z,94
2022-09-26T03:42:47.000Z,94
2022-09-26T03:44:53.000Z,95
2022-09-26T03:46:20.000Z,94
2022-09-26T03:48:26.000Z,94
2022-09-26T03:49:53.000Z,94
2022-09-26T03:51:59.000Z,95
2022-09-26T03:53:25.000Z,95
2022-09-26T03:55:32.000Z,96
2022-09-26T03:56:58.000Z,95
2022-09-26T03:59:04.000Z,95
2022-09-26T04:00:31.000Z,95
2022-09-26T04:02:37.000Z,95
2022-09-26T04:05:28.000Z,95
2022-09-26T04:06:55.000Z,95
2022-09-26T04:09:01.000Z,95
2022-09-26T04:10:28.000Z,95
2022-09-26T04:12:34.000Z,96
2022-09-26T04:14:00.000Z,96
2022-09-26T04:16:06.000Z,96
2022-09-26T04:17:33.000Z,96
2022-09-26T04:19:39.000Z,96
2022-09-26T04:21:06.000Z,96
2022-09-26T04:23:16.000Z,96
2022-09-26T04:24:42.000Z,97
2022-09-26T04:26:48.000Z,97
2022-09-26T04:28:15.000Z,97
2022-09-26T04:30:21.000Z,97
2022-09-26T04:31:47.000Z,96
2022-09-26T04:33:54.000Z,95
2022-09-26T04:35:20.000Z,96
2022-09-26T04:37:26.000Z,96
2022-09-26T04:38:53.000Z,96
2022-09-26T04:40:59.000Z,96
2022-09-26T04:43:50.000Z,96
2022-09-26T04:45:16.000Z,97
2022-09-26T04:47:22.000Z,97
2022-09-26T04:48:49.000Z,97
2022-09-26T04:50:55.000Z,97
2022-09-26T04:52:21.000Z,97
2022-09-26T04:54:28.000Z,96
2022-09-26T04:55:54.000Z,96
2022-09-26T04:58:00.000Z,97
2022-09-26T04:59:27.000Z,96
2022-09-26T05:01:33.000Z,97
2022-09-26T05:03:00.000Z,97
2022-09-26T05:05:06.000Z,97
2022-09-26T05:06:32.000Z,96
2022-09-26T05:08:38.000Z,96
2022-09-26T05:10:05.000Z,96
2022-09-26T05:12:11.000Z,96
2022-09-26T05:13:37.000Z,97
2022-09-26T05:15:43.000Z,98
2022-09-26T05:17:10.000Z,98
2022-09-26T05:19:16.000Z,98
2022-09-26T05:22:07.000Z,98
2022-09-26T05:23:34.000Z,98
2022-09-26T05:25:40.000Z,99
2022-09-26T05:27:06.000Z,99
2022-09-26T05:29:12.000Z,99
2022-09-26T05:30:39.000Z,99
2022-09-26T05:32:45.000Z,99
2022-09-26T05:34:12.000Z,99
2022-09-26T05:36:25.000Z,99
2022-09-26T05:37:52.000Z,99
2022-09-26T05:39:58.000Z,99
2022-09-26T05:41:24.000Z,99
2022-09-26T05:43:30.000Z,99
2022-09-26T05:44:57.000Z,100
2022-09-26T05:47:03.000Z,100
2022-09-26T05:48:30.000Z,100
2022-09-26T05:50:36.000Z,99
2022-09-26T05:52:09.000Z,99
2022-09-26T05:54:15.000Z,99
2022-09-26T05:55:41.000Z,99
2022-09-26T05:57:47.000Z,99
2022-09-26T06:00:38.000Z,99
2022-09-26T06:02:05.000Z,100
2022-09-26T06:04:11.000Z,99
2022-09-26T06:05:38.000Z,100
2022-09-26T06:07:44.000Z,100
2022-09-26T06:09:11.000Z,100
2022-09-26T06:11:17.000Z,100
2022-09-26T06:12:43.000Z,99
2022-09-26T06:14:56.000Z,99
2022-09-26T06:16:22.000Z,99
2022-09-26T06:18:28.000Z,99
2022-09-26T06:19:55.000Z,99
2022-09-26T06:22:01.000Z,99
2022-09-26T06:23:28.000Z,99
2022-09-26T06:25:34.000Z,98
2022-09-26T06:27:00.000Z,98
2022-09-26T06:29:07.000Z,98
2022-09-26T06:30:33.000Z,98
2022-09-26T06:32:39.000Z,98
2022-09-26T06:34:06.000Z,98
2022-09-26T06:36:12.000Z,98
2022-09-26T06:39:03.000Z,98
2022-09-26T06:40:29.000Z,97
2022-09-26T06:42:36.000Z,97
2022-09-26T06:44:02.000Z,97
2022-09-26T06:46:08.000Z,97
2022-09-26T06:47:35.000Z,97
2022-09-26T06:49:41.000Z,97
2022-09-26T06:51:07.000Z,97
2022-09-26T06:53:14.000Z,97
2022-09-26T06:54:40.000Z,97
2022-09-26T06:56:46.000Z,97
2022-09-26T06:58:13.000Z,97
2022-09-26T07:00:19.000Z,97
2022-09-26T07:01:45.000Z,97
2022-09-26T07:03:52.000Z,97
2022-09-26T07:05:20.000Z,97
2022-09-26T07:07:27.000Z,96
2022-09-26T07:08:54.000Z,96
2022-09-26T07:11:10.000Z,96
2022-09-26T07:13:04.000Z,95
2022-09-26T07:15:10.000Z,95
2022-09-26T07:18:01.000Z,95
2022-09-26T07:19:28.000Z,95
2022-09-26T07:21:34.000Z,95
2022-09-26T07:23:00.000Z,94
2022-09-26T07:25:06.000Z,95
2022-09-26T07:26:33.000Z,94
2022-09-26T07:28:39.000Z,95
2022-09-26T07:30:06.000Z,94
2022-09-26T07:32:12.000Z,94
2022-09-26T07:33:38.000Z,92
2022-09-26T07:35:44.000Z,93
2022-09-26T07:37:11.000Z,94
2022-09-26T07:39:17.000Z,93
2022-09-26T07:40:44.000Z,93
2022-09-26T07:42:50.000Z,92
2022-09-26T07:44:44.000Z,91
2022-09-26T07:47:30.000Z,91
2022-09-26T07:48:56.000Z,90
2022-09-26T07:51:03.000Z,91
2022-09-26T07:52:35.000Z,90
2022-09-26T07:54:41.000Z,90
2022-09-26T07:57:32.000Z,88
2022-09-26T07:58:59.000Z,89
2022-09-26T08:01:05.000Z,88
2022-09-26T08:02:31.000Z,88
2022-09-26T08:04:38.000Z,88
2022-09-26T08:06:04.000Z,88
2022-09-26T08:08:10.000Z,87
2022-09-26T08:09:37.000Z,88
2022-09-26T08:11:43.000Z,88
2022-09-26T08:13:09.000Z,87
2022-09-26T08:15:16.000Z,88
2022-09-26T08:16:42.000Z,86
2022-09-26T08:18:48.000Z,88
2022-09-26T08:20:15.000Z,87
2022-09-26T08:22:21.000Z,86
2022-09-26T08:23:48.000Z,86
2022-09-26T08:25:54.000Z,86
2022-09-26T08:27:20.000Z,86
2022-09-26T08:29:26.000Z,85
2022-09-26T08:30:53.000Z,86
2022-09-26T08:32:59.000Z,85
2022-09-26T08:35:50.000Z,85
2022-09-26T08:37:17.000Z,84
2022-09-26T08:39:23.000Z,85
2022-09-26T08:40:49.000Z,86
2022-09-26T08:42:56.000Z,84
2022-09-26T08:44:22.000Z,85
2022-09-26T08:46:28.000Z,86
2022-09-26T08:47:55.000Z,85
2022-09-26T08:50:01.000Z,85
2022-09-26T08:51:27.000Z,85
2022-09-26T08:53:35.000Z,82
2022-09-26T08:55:01.000Z,83
2022-09-26T08:57:08.000Z,82
2022-09-26T08:58:34.000Z,81
2022-09-26T09:00:40.000Z,80
2022-09-26T09:02:07.000Z,82
2022-09-26T09:04:13.000Z,79
2022-09-26T09:05:39.000Z,83
2022-09-26T09:07:46.000Z,81
2022-09-26T09:09:12.000Z,81
2022-09-26T09:11:18.000Z,81
2022-09-26T09:14:10.000Z,80
2022-09-26T09:15:36.000Z,80
2022-09-26T09:17:42.000Z,80
2022-09-26T09:19:09.000Z,78
2022-09-26T09:21:15.000Z,78
2022-09-26T09:22:42.000Z,80
2022-09-26T09:24:48.000Z,79
2022-09-26T09:28:50.000Z,76
2022-09-26T09:30:17.000Z,73
2022-09-26T09:32:23.000Z,74
2022-09-26T09:33:50.000Z,75
2022-09-26T09:35:56.000Z,75
2022-09-26T09:37:22.000Z,75
2022-09-26T09:39:28.000Z,75
2022-09-26T09:40:55.000Z,72
2022-09-26T09:43:01.000Z,74
2022-09-26T09:44:28.000Z,75
2022-09-26T09:46:34.000Z,74
2022-09-26T09:48:01.000Z,74
2022-09-26T09:50:07.000Z,74
2022-09-26T09:52:58.000Z,75
2022-09-26T09:54:24.000Z,74
2022-09-26T09:56:31.000Z,69
2022-09-26T09:57:57.000Z,70
2022-09-26T10:00:03.000Z,70
2022-09-26T10:01:30.000Z,72
2022-09-26T10:03:36.000Z,66
2022-09-26T10:05:02.000Z,69
2022-09-26T10:07:08.000Z,68
2022-09-26T10:08:35.000Z,67
2022-09-26T10:10:41.000Z,70
2022-09-26T10:12:08.000Z,68
2022-09-26T10:14:14.000Z,69
2022-09-26T10:15:40.000Z,66
2022-09-26T10:17:47.000Z,67
2022-09-26T10:19:49.000Z,66
2022-09-26T10:21:55.000Z,66
2022-09-26T10:23:21.000Z,66
2022-09-26T10:25:27.000Z,64
2022-09-26T10:26:54.000Z,65
2022-09-26T10:29:00.000Z,67
2022-09-26T10:31:51.000Z,66
2022-09-26T10:33:18.000Z,64
2022-09-26T10:35:24.000Z,66
2022-09-26T10:36:51.000Z,63
2022-09-26T10:38:57.000Z,64
2022-09-26T10:40:23.000Z,64
2022-09-26T10:42:30.000Z,65
2022-09-26T10:43:58.000Z,64
2022-09-26T10:46:04.000Z,64
2022-09-26T10:47:31.000Z,64
2022-09-26T10:49:37.000Z,64
2022-09-26T10:51:04.000Z,63
2022-09-26T10:53:10.000Z,66
2022-09-26T10:54:36.000Z,67
2022-09-26T10:56:42.000Z,69
2022-09-26T10:58:09.000Z,65
2022-09-26T11:00:19.000Z,66
2022-09-26T11:01:46.000Z,67
2022-09-26T11:03:52.000Z,67
2022-09-26T11:05:19.000Z,70
2022-09-26T11:07:25.000Z,68
2022-09-26T11:10:16.000Z,69
2022-09-26T11:11:42.000Z,66
2022-09-26T11:13:49.000Z,66
2022-09-26T11:15:15.000Z,64
2022-09-26T11:17:21.000Z,67
2022-09-26T11:18:48.000Z,67
2022-09-26T11:20:54.000Z,65
2022-09-26T11:22:20.000Z,65
2022-09-26T11:24:26.000Z,65
2022-09-26T11:25:53.000Z,64
2022-09-26T11:28:04.000Z,64
2022-09-26T11:29:30.000Z,63
2022-09-26T11:31:36.000Z,65
2022-09-26T11:33:03.000Z,65
2022-09-26T11:35:09.000Z,63
2022-09-26T11:36:36.000Z,65
2022-09-26T11:38:42.000Z,65
2022-09-26T11:40:08.000Z,64
2022-09-26T11:42:16.000Z,63
2022-09-26T11:43:42.000Z,63
2022-09-26T11:45:48.000Z,64
2022-09-26T11:48:39.000Z,65
2022-09-26T11:50:06.000Z,65
2022-09-26T11:52:12.000Z,65
2022-09-26T11:53:38.000Z,66
2022-09-26T11:55:45.000Z,65
2022-09-26T11:57:11.000Z,63
2022-09-26T11:59:17.000Z,65
2022-09-26T12:00:44.000Z,62
2022-09-26T12:02:50.000Z,63
2022-09-26T12:04:16.000Z,62
2022-09-26T12:06:23.000Z,63
2022-09-26T12:07:49.000Z,62
2022-09-26T12:09:56.000Z,63
2022-09-26T12:11:22.000Z,66
2022-09-26T12:13:28.000Z,65
2022-09-26T12:14:55.000Z,64
2022-09-26T12:17:01.000Z,66
2022-09-26T12:18:28.000Z,63
2022-09-26T12:20:34.000Z,64
2022-09-26T12:22:00.000Z,62
2022-09-26T12:24:06.000Z,64
2022-09-26T12:26:58.000Z,64
2022-09-26T12:28:24.000Z,67
2022-09-26T12:30:30.000Z,64
2022-09-26T12:31:57.000Z,65
2022-09-26T12:34:03.000Z,66
2022-09-26T12:35:29.000Z,66
2022-09-26T12:37:35.000Z,67
2022-09-26T12:39:02.000Z,65
2022-09-26T12:41:08.000Z,67
2022-09-26T12:42:34.000Z,65
2022-09-26T12:44:40.000Z,66
2022-09-26T12:46:07.000Z,68
2022-09-26T12:48:13.000Z,68
2022-09-26T12:49:40.000Z,67
2022-09-26T12:51:46.000Z,66
2022-09-26T12:53:12.000Z,66
2022-09-26T12:55:18.000Z,66
2022-09-26T12:56:45.000Z,66
2022-09-26T12:58:51.000Z,67
2022-09-26T13:00:17.000Z,66
2022-09-26T13:02:23.000Z,66
2022-09-26T13:05:15.000Z,66
2022-09-26T13:06:41.000Z,67
2022-09-26T13:09:08.000Z,67
2022-09-26T13:10:34.000Z,67
2022-09-26T13:12:41.000Z,68
2022-09-26T13:14:07.000Z,66
2022-09-26T13:16:13.000Z,65
2022-09-26T13:17:40.000Z,64
2022-09-26T13:19:46.000Z,64
2022-09-26T13:21:12.000Z,65
2022-09-26T13:23:18.000Z,62
2022-09-26T13:24:45.000Z,64
2022-09-26T13:26:51.000Z,63
2022-09-26T13:28:18.000Z,65
2022-09-26T13:30:24.000Z,63
2022-09-26T13:31:50.000Z,62
2022-09-26T13:33:56.000Z,64
2022-09-26T13:35:23.000Z,63
2022-09-26T13:37:29.000Z,65
2022-09-26T13:38:56.000Z,62
2022-09-26T13:41:02.000Z,63
2022-09-26T13:43:54.000Z,63
2022-09-26T13:45:20.000Z,65
2022-09-26T13:47:26.000Z,65
2022-09-26T13:48:53.000Z,64
2022-09-26T13:50:59.000Z,64
2022-09-26T13:52:25.000Z,65
2022-09-26T13:54:31.000Z,65
2022-09-26T13:55:58.000Z,65
2022-09-26T13:58:04.000Z,64
2022-09-26T13:59:30.000Z,66
2022-09-26T14:01:36.000Z,67
2022-09-26T14:03:03.000Z,65
2022-09-26T14:05:10.000Z,65
2022-09-26T14:06:37.000Z,64
2022-09-26T14:08:43.000Z,63
2022-09-26T14:10:10.000Z,63
2022-09-26T14:12:16.000Z,65
2022-09-26T14:13:43.000Z,64
2022-09-26T14:15:49.000Z,63
2022-09-26T14:17:16.000Z,64
2022-09-26T14:19:26.000Z,64
2022-09-26T14:22:17.000Z,64
2022-09-26T14:23:43.000Z,65
2022-09-26T14:25:50.000Z,65
2022-09-26T14:27:16.000Z,65
2022-09-26T14:29:22.000Z,64
2022-09-26T14:30:49.000Z,66
2022-09-26T14:32:55.000Z,65
2022-09-26T14:34:22.000Z,65
2022-09-26T14:36:28.000Z,65
2022-09-26T14:37:54.000Z,65
2022-09-26T14:40:00.000Z,66
2022-09-26T14:41:27.000Z,66
2022-09-26T14:43:33.000Z,67
2022-09-26T14:44:59.000Z,67
2022-09-26T14:47:05.000Z,68
2022-09-26T14:48:32.000Z,68
2022-09-26T14:50:38.000Z,70
2022-09-26T14:52:04.000Z,69
2022-09-26T14:54:17.000Z,69
2022-09-26T14:55:43.000Z,67
2022-09-26T14:57:49.000Z,67
2022-09-26T15:00:40.000Z,67
2022-09-26T15:02:07.000Z,67
2022-09-26T15:04:13.000Z,67
2022-09-26T15:05:40.000Z,66
2022-09-26T15:07:46.000Z,65
2022-09-26T15:09:12.000Z,68
2022-09-26T15:11:18.000Z,67
2022-09-26T15:12:45.000Z,68
2022-09-26T15:14:51.000Z,67
2022-09-26T15:16:17.000Z,68
2022-09-26T15:18:24.000Z,68
2022-09-26T15:19:50.000Z,69
2022-09-26T15:21:56.000Z,69
2022-09-26T15:23:23.000Z,70
2022-09-26T15:25:29.000Z,70
2022-09-26T15:26:55.000Z,69
2022-09-26T15:29:01.000Z,70
2022-09-26T15:30:28.000Z,71
2022-09-26T15:32:34.000Z,70
2022-09-26T15:34:01.000Z,70
2022-09-26T15:36:07.000Z,70
2022-09-26T15:38:58.000Z,69
2022-09-26T15:40:24.000Z,70
2022-09-26T15:42:30.000Z,70
2022-09-26T15:43:57.000Z,71
2022-09-26T15:46:03.000Z,71
2022-09-26T15:47:36.000Z,71
2022-09-26T15:49:42.000Z,71
2022-09-26T15:51:08.000Z,71
2022-09-26T15:53:14.000Z,70
2022-09-26T15:54:41.000Z,70
2022-09-26T15:56:47.000Z,71
2022-09-26T15:58:13.000Z,71
2022-09-26T16:00:20.000Z,71
2022-09-26T16:01:46.000Z,71
2022-09-26T16:03:52.000Z,70
2022-09-26T16:05:19.000Z,70
2022-09-26T16:07:25.000Z,70
2022-09-26T16:08:51.000Z,70
2022-09-26T16:10:58.000Z,71
2022-09-26T16:12:24.000Z,71
2022-09-26T16:14:30.000Z,71
2022-09-26T16:17:21.000Z,71
2022-09-26T16:18:48.000Z,71
2022-09-26T16:20:54.000Z,71
2022-09-26T16:22:20.000Z,72
2022-09-26T16:24:27.000Z,73
2022-09-26T16:25:53.000Z,72
2022-09-26T16:27:59.000Z,72
2022-09-26T16:29:26.000Z,73
2022-09-26T16:31:32.000Z,73
2022-09-26T16:32:58.000Z,72
2022-09-26T16:35:04.000Z,73
2022-09-26T16:36:31.000Z,72
2022-09-26T16:38:37.000Z,72
2022-09-26T16:40:04.000Z,72
2022-09-26T16:42:10.000Z,72
2022-09-26T16:43:36.000Z,73
2022-09-26T16:45:42.000Z,73
2022-09-26T16:47:09.000Z,73
2022-09-26T16:49:15.000Z,73
2022-09-26T16:50:41.000Z,73
2022-09-26T16:52:47.000Z,73
2022-09-26T16:55:39.000Z,73
2022-09-26T16:57:05.000Z,74
2022-09-26T16:59:11.000Z,74
2022-09-26T17:00:38.000Z,75
2022-09-26T17:02:44.000Z,75
2022-09-26T17:04:10.000Z,75
2022-09-26T17:06:17.000Z,75
2022-09-26T17:07:43.000Z,75
2022-09-26T17:09:49.000Z,75
2022-09-26T17:11:16.000Z,76
2022-09-26T17:13:22.000Z,76
2022-09-26T17:14:48.000Z,76
2022-09-26T17:16:54.000Z,76
2022-09-26T17:18:21.000Z,76
2022-09-26T17:20:27.000Z,76
2022-09-26T17:21:54.000Z,76
2022-09-26T17:24:00.000Z,76
2022-09-26T17:25:26.000Z,76
2022-09-26T17:27:32.000Z,76
2022-09-26T17:28:59.000Z,77
2022-09-26T17:31:05.000Z,77
2022-09-26T17:33:56.000Z,78
2022-09-26T17:35:23.000Z,78
2022-09-26T17:37:29.000Z,77
2022-09-26T17:38:55.000Z,77
2022-09-26T17:41:02.000Z,78
2022-09-26T17:42:28.000Z,78
2022-09-26T17:44:34.000Z,78
2022-09-26T17:46:01.000Z,78
2022-09-26T17:48:07.000Z,78
2022-09-26T17:49:33.000Z,78
2022-09-26T17:51:40.000Z,78
2022-09-26T17:53:06.000Z,78
2022-09-26T17:55:12.000Z,78
2022-09-26T17:56:39.000Z,78
2022-09-26T17:58:45.000Z,78
2022-09-26T18:00:11.000Z,78
2022-09-26T18:02:17.000Z,78
2022-09-26T18:03:44.000Z,78
2022-09-26T18:05:50.000Z,78
2022-09-26T18:07:17.000Z,78
2022-09-26T18:09:23.000Z,78
2022-09-26T18:12:14.000Z,78
2022-09-26T18:13:40.000Z,77
2022-09-26T18:15:46.000Z,78
2022-09-26T18:17:13.000Z,77
2022-09-26T18:19:19.000Z,78
2022-09-26T18:20:46.000Z,78
2022-09-26T18:22:52.000Z,78
2022-09-26T18:24:18.000Z,78
2022-09-26T18:26:26.000Z,78
2022-09-26T18:27:52.000Z,79
2022-09-26T18:29:58.000Z,80
2022-09-26T18:31:25.000Z,80
2022-09-26T18:33:31.000Z,80
2022-09-26T18:35:04.000Z,81
2022-09-26T18:37:10.000Z,81
2022-09-26T18:38:36.000Z,82
2022-09-26T18:40:42.000Z,82
2022-09-26T18:42:09.000Z,82
2022-09-26T18:44:15.000Z,82
2022-09-26T18:45:42.000Z,82
2022-09-26T18:47:48.000Z,82
2022-09-26T18:50:39.000Z,83
2022-09-26T18:52:06.000Z,82
2022-09-26T18:54:12.000Z,83
2022-09-26T18:55:39.000Z,84
2022-09-26T18:57:45.000Z,84
2022-09-26T18:59:11.000Z,85
2022-09-26T19:01:18.000Z,85
2022-09-26T19:02:44.000Z,85
2022-09-26T19:04:51.000Z,85
2022-09-26T19:06:17.000Z,86
2022-09-26T19:08:23.000Z,86
2022-09-26T19:09:50.000Z,86
2022-09-26T19:11:56.000Z,87
2022-09-26T19:13:22.000Z,87
2022-09-26T19:15:33.000Z,86
2022-09-26T19:17:00.000Z,86
2022-09-26T19:19:06.000Z,86
2022-09-26T19:20:32.000Z,87
2022-09-26T19:22:38.000Z,86
2022-09-26T19:24:05.000Z,87
2022-09-26T19:26:11.000Z,87
2022-09-26T19:29:03.000Z,88
2022-09-26T19:30:29.000Z,88
2022-09-26T19:32:36.000Z,88
2022-09-26T19:34:02.000Z,89
2022-09-26T19:36:08.000Z,90
2022-09-26T19:37:35.000Z,90
2022-09-26T19:39:41.000Z,89
2022-09-26T19:41:07.000Z,90
2022-09-26T19:43:13.000Z,89
2022-09-26T19:44:40.000Z,89
2022-09-26T19:46:46.000Z,88
2022-09-26T19:48:13.000Z,88
2022-09-26T19:50:19.000Z,89
2022-09-26T19:51:45.000Z,88
2022-09-26T19:53:51.000Z,88
2022-09-26T19:55:18.000Z,88
2022-09-26T19:57:24.000Z,88
2022-09-26T19:58:50.000Z,89
2022-09-26T20:00:57.000Z,90
2022-09-26T20:02:23.000Z,88
2022-09-26T20:04:29.000Z,89
2022-09-26T20:07:21.000Z,89
2022-09-26T20:08:47.000Z,89
2022-09-26T20:10:53.000Z,89
2022-09-26T20:12:20.000Z,89
2022-09-26T20:14:26.000Z,89
2022-09-26T20:15:52.000Z,89
2022-09-26T20:17:58.000Z,89
2022-09-26T20:19:25.000Z,89
2022-09-26T20:21:31.000Z,89
2022-09-26T20:22:57.000Z,88
2022-09-26T20:25:03.000Z,89
2022-09-26T20:26:30.000Z,89
2022-09-26T20:28:36.000Z,89
2022-09-26T20:30:02.000Z,90
2022-09-26T20:32:09.000Z,90
2022-09-26T20:33:41.000Z,90
2022-09-26T20:35:47.000Z,90
2022-09-26T20:37:14.000Z,90
2022-09-26T20:39:20.000Z,90
2022-09-26T20:40:46.000Z,90
2022-09-26T20:42:53.000Z,90
2022-09-26T20:45:44.000Z,90
2022-09-26T20:47:10.000Z,91
2022-09-26T20:49:17.000Z,90
2022-09-26T20:50:43.000Z,91
2022-09-26T20:52:49.000Z,91
2022-09-26T20:54:16.000Z,91
2022-09-26T20:56:22.000Z,91
2022-09-26T20:57:48.000Z,91
2022-09-26T20:59:54.000Z,92
2022-09-26T21:01:21.000Z,91
2022-09-26T21:03:27.000Z,92
2022-09-26T21:04:54.000Z,92
2022-09-26T21:07:00.000Z,92
2022-09-26T21:08:26.000Z,92
2022-09-26T21:10:32.000Z,91
2022-09-26T21:11:59.000Z,92
2022-09-26T21:14:05.000Z,91
2022-09-26T21:15:32.000Z,91
2022-09-26T21:17:38.000Z,92
2022-09-26T21:19:04.000Z,92
2022-09-26T21:21:10.000Z,92
2022-09-26T21:24:01.000Z,92
2022-09-26T21:25:28.000Z,92
2022-09-26T21:27:34.000Z,92
2022-09-26T21:29:00.000Z,92
2022-09-26T21:31:07.000Z,92
2022-09-26T21:32:33.000Z,93
2022-09-26T21:34:39.000Z,93
2022-09-26T21:36:06.000Z,93
2022-09-26T21:38:12.000Z,92
2022-09-26T21:39:38.000Z,93
2022-09-26T21:41:45.000Z,93
2022-09-26T21:43:11.000Z,93
2022-09-26T21:45:17.000Z,93
2022-09-26T21:46:44.000Z,93
2022-09-26T21:48:50.000Z,92
2022-09-26T21:50:16.000Z,92
2022-09-26T21:52:23.000Z,93
2022-09-26T21:53:49.000Z,93
2022-09-26T21:55:55.000Z,93
2022-09-26T21:57:22.000Z,92
2022-09-26T21:59:28.000Z,93
2022-09-26T22:02:19.000Z,92
2022-09-26T22:03:45.000Z,93
2022-09-26T22:05:52.000Z,93
2022-09-26T22:07:18.000Z,93
2022-09-26T22:09:24.000Z,93
2022-09-26T22:10:51.000Z,93
2022-09-26T22:12:57.000Z,93
2022-09-26T22:14:23.000Z,93
2022-09-26T22:16:29.000Z,93
2022-09-26T22:17:56.000Z,93
2022-09-26T22:20:02.000Z,93
2022-09-26T22:21:28.000Z,93
2022-09-26T22:23:34.000Z,93
2022-09-26T22:25:01.000Z,93
2022-09-26T22:27:07.000Z,93
2022-09-26T22:28:34.000Z,93
2022-09-26T22:30:40.000Z,93
2022-09-26T22:32:06.000Z,93
2022-09-26T22:34:13.000Z,93
2022-09-26T22:35:39.000Z,93
2022-09-26T22:37:45.000Z,94
2022-09-26T22:40:36.000Z,94
2022-09-26T22:42:03.000Z,93
2022-09-26T22:44:09.000Z,93
2022-09-26T22:45:36.000Z,93
2022-09-26T22:47:42.000Z,93
2022-09-26T22:49:08.000Z,93
2022-09-26T22:51:14.000Z,93
2022-09-26T22:52:41.000Z,93
2022-09-26T22:54:47.000Z,93
2022-09-26T22:56:13.000Z,93
2022-09-26T22:58:19.000Z,93
2022-09-26T22:59:46.000Z,94
2022-09-26T23:01:52.000Z,94
2022-09-26T23:03:19.000Z,94
2022-09-26T23:05:25.000Z,94
2022-09-26T23:06:51.000Z,94
2022-09-26T23:08:57.000Z,94
2022-09-26T23:10:24.000Z,94
2022-09-26T23:12:30.000Z,94
2022-09-26T23:13:56.000Z,94
2022-09-26T23:16:02.000Z,94
2022-09-26T23:18:54.000Z,94
2022-09-26T23:20:20.000Z,94
2022-09-26T23:22:26.000Z,94
2022-09-26T23:23:53.000Z,94
2022-09-26T23:25:59.000Z,94
2022-09-26T23:27:25.000Z,94
2022-09-26T23:29:31.000Z,94
2022-09-26T23:30:58.000Z,95
2022-09-26T23:33:04.000Z,95
2022-09-26T23:34:31.000Z,95
2022-09-26T23:36:37.000Z,95
2022-09-26T23:38:03.000Z,95
2022-09-26T23:40:11.000Z,95
2022-09-26T23:41:38.000Z,95
2022-09-26T23:43:44.000Z,95
2022-09-26T23:45:10.000Z,94
2022-09-26T23:47:16.000Z,94
2022-09-26T23:48:43.000Z,95
2022-09-26T23:50:49.000Z,95
2022-09-26T23:52:15.000Z,95
2022-09-26T23:54:22.000Z,95
2022-09-26T23:57:13.000Z,94
2022-09-26T23:58:39.000Z,95
